createdAt,value
2019-06-01T00:00:56.793Z,16.43
2019-06-01T00:03:26.254Z,16.38
2019-06-01T00:05:55.439Z,16.35
2019-06-01T00:08:24.646Z,16.33
2019-06-01T00:10:53.803Z,16.31
2019-06-01T00:13:22.993Z,16.28
2019-06-01T00:15:52.287Z,16.24
2019-06-01T00:18:21.436Z,16.22
2019-06-01T00:20:50.794Z,16.19
2019-06-01T00:23:19.960Z,16.18
2019-06-01T00:25:49.167Z,16.15
2019-06-01T00:28:18.347Z,16.11
2019-06-01T00:30:47.970Z,16.07
2019-06-01T00:33:17.306Z,16.03
2019-06-01T00:35:47.460Z,15.97
2019-06-01T00:38:16.619Z,15.94
2019-06-01T00:40:45.909Z,15.91
2019-06-01T00:43:15.207Z,15.89
2019-06-01T00:45:44.525Z,15.86
2019-06-01T00:48:13.773Z,15.82
2019-06-01T00:50:43.115Z,15.78
2019-06-01T00:53:12.387Z,15.76
2019-06-01T00:55:41.667Z,15.74
2019-06-01T00:58:10.840Z,15.72
2019-06-01T01:00:43.619Z,15.70
2019-06-01T01:03:11.017Z,15.69
2019-06-01T01:05:40.295Z,15.66
2019-06-01T01:08:09.472Z,15.65
2019-06-01T01:10:38.691Z,15.62
2019-06-01T01:13:15.095Z,15.60
2019-06-01T01:15:45.205Z,15.58
2019-06-01T01:18:14.447Z,15.55
2019-06-01T01:20:43.638Z,15.50
2019-06-01T01:23:12.874Z,15.48
2019-06-01T01:25:42.040Z,15.46
2019-06-01T01:28:11.233Z,15.46
2019-06-01T01:30:40.787Z,15.42
2019-06-01T01:33:09.967Z,15.42
2019-06-01T01:35:39.118Z,15.39
2019-06-01T01:38:08.332Z,15.37
2019-06-01T01:40:37.532Z,14.91
2019-06-01T01:43:06.719Z,15.33
2019-06-01T01:45:35.895Z,15.31
2019-06-01T01:48:05.092Z,15.29
2019-06-01T01:50:34.428Z,15.29
2019-06-01T01:53:03.608Z,15.27
2019-06-01T01:55:32.779Z,15.26
2019-06-01T01:58:01.948Z,15.25
2019-06-01T02:00:37.639Z,15.26
2019-06-01T02:03:07.422Z,15.25
2019-06-01T02:05:36.608Z,15.26
2019-06-01T02:08:06.814Z,15.25
2019-06-01T02:10:36.067Z,15.21
2019-06-01T02:13:05.821Z,15.18
2019-06-01T02:15:35.691Z,14.47
2019-06-01T02:18:05.535Z,15.11
2019-06-01T02:20:34.919Z,15.08
2019-06-01T02:23:04.233Z,15.04
2019-06-01T02:25:33.513Z,15.00
2019-06-01T02:28:03.379Z,14.96
2019-06-01T02:30:32.685Z,14.92
2019-06-01T02:33:02.407Z,14.89
2019-06-01T02:35:32.367Z,14.86
2019-06-01T02:38:03.136Z,14.85
2019-06-01T02:40:32.681Z,14.79
2019-06-01T02:43:03.725Z,14.76
2019-06-01T02:45:32.806Z,14.72
2019-06-01T02:48:03.769Z,14.69
2019-06-01T02:50:32.901Z,14.66
2019-06-01T02:53:03.526Z,14.64
2019-06-01T02:55:32.859Z,14.62
2019-06-01T02:58:02.460Z,14.60
2019-06-01T03:01:07.121Z,14.58
2019-06-01T03:03:36.238Z,14.55
2019-06-01T03:06:07.680Z,14.53
2019-06-01T03:08:38.440Z,14.49
2019-06-01T03:11:09.981Z,14.46
2019-06-01T03:13:42.228Z,14.43
2019-06-01T03:16:13.528Z,14.40
2019-06-01T03:18:44.716Z,14.39
2019-06-01T03:21:15.768Z,13.87
2019-06-01T03:23:46.551Z,14.37
2019-06-01T03:26:19.830Z,14.35
2019-06-01T03:28:52.228Z,14.33
2019-06-01T03:31:21.529Z,14.33
2019-06-01T03:33:50.797Z,14.35
2019-06-01T03:36:19.964Z,14.35
2019-06-01T03:38:50.064Z,14.35
2019-06-01T03:41:19.535Z,14.34
2019-06-01T03:43:48.735Z,14.31
2019-06-01T03:46:17.964Z,14.29
2019-06-01T03:48:47.186Z,14.26
2019-06-01T03:51:16.363Z,14.24
2019-06-01T03:53:45.547Z,14.23
2019-06-01T03:56:14.824Z,14.21
2019-06-01T03:58:44.022Z,14.18
2019-06-01T04:01:13.259Z,14.19
2019-06-01T04:03:42.419Z,14.21
2019-06-01T04:06:11.624Z,14.24
2019-06-01T04:08:40.816Z,14.25
2019-06-01T04:11:10.022Z,14.26
2019-06-01T04:13:39.197Z,14.28
2019-06-01T04:16:08.453Z,14.28
2019-06-01T04:18:37.766Z,14.26
2019-06-01T04:21:08.144Z,14.26
2019-06-01T04:23:37.448Z,14.28
2019-06-01T04:26:06.636Z,14.28
2019-06-01T04:28:35.814Z,14.29
2019-06-01T04:31:06.405Z,14.31
2019-06-01T04:33:35.699Z,14.33
2019-06-01T04:36:04.963Z,14.32
2019-06-01T04:38:34.179Z,14.33
2019-06-01T04:41:03.606Z,14.32
2019-06-01T04:43:32.805Z,14.36
2019-06-01T04:46:01.981Z,14.37
2019-06-01T04:48:31.198Z,14.39
2019-06-01T04:51:00.351Z,14.39
2019-06-01T04:53:29.551Z,14.40
2019-06-01T04:55:58.743Z,14.39
2019-06-01T04:58:27.935Z,14.40
2019-06-01T05:00:57.108Z,14.43
2019-06-01T05:03:26.298Z,14.47
2019-06-01T05:05:55.489Z,14.53
2019-06-01T05:08:24.696Z,14.59
2019-06-01T05:10:53.866Z,14.65
2019-06-01T05:13:23.065Z,14.72
2019-06-01T05:15:52.254Z,14.07
2019-06-01T05:18:21.429Z,14.87
2019-06-01T05:20:50.627Z,14.96
2019-06-01T05:23:19.822Z,15.00
2019-06-01T05:25:49.013Z,15.07
2019-06-01T05:28:18.275Z,15.07
2019-06-01T05:30:47.632Z,15.07
2019-06-01T05:33:31.074Z,15.17
2019-06-01T05:35:47.750Z,15.24
2019-06-01T05:38:16.937Z,15.32
2019-06-01T05:40:46.097Z,15.38
2019-06-01T05:43:18.918Z,15.46
2019-06-01T05:45:46.208Z,15.51
2019-06-01T05:48:22.821Z,15.57
2019-06-01T05:50:46.389Z,15.65
2019-06-01T05:53:16.729Z,15.73
2019-06-01T05:55:46.071Z,15.80
2019-06-01T05:58:15.376Z,15.88
2019-06-01T06:00:45.000Z,15.95
2019-06-01T06:03:17.757Z,16.05
2019-06-01T06:05:45.187Z,16.12
2019-06-01T06:08:14.591Z,16.23
2019-06-01T06:10:44.107Z,16.31
2019-06-01T06:13:13.440Z,16.41
2019-06-01T06:15:42.602Z,16.53
2019-06-01T06:18:11.810Z,16.59
2019-06-01T06:20:41.204Z,16.67
2019-06-01T06:23:10.382Z,16.75
2019-06-01T06:25:41.433Z,16.83
2019-06-01T06:28:10.707Z,16.92
2019-06-01T06:30:39.973Z,17.01
2019-06-01T06:33:09.148Z,16.73
2019-06-01T06:35:38.319Z,17.18
2019-06-01T06:38:07.505Z,17.27
2019-06-01T06:40:36.703Z,17.35
2019-06-01T06:43:18.709Z,17.42
2019-06-01T06:45:36.846Z,17.56
2019-06-01T06:48:06.055Z,17.67
2019-06-01T06:50:35.403Z,17.77
2019-06-01T06:53:04.661Z,17.85
2019-06-01T06:55:33.947Z,16.59
2019-06-01T06:58:03.154Z,18.05
2019-06-01T07:00:32.346Z,18.16
2019-06-01T07:03:01.562Z,18.29
2019-06-01T07:05:31.464Z,18.40
2019-06-01T07:08:00.738Z,18.49
2019-06-01T07:10:29.952Z,18.59
2019-06-01T07:12:59.149Z,18.69
2019-06-01T07:15:28.365Z,18.76
2019-06-01T07:17:57.532Z,18.88
2019-06-01T07:20:27.914Z,19.01
2019-06-01T07:22:57.095Z,19.12
2019-06-01T07:25:26.896Z,19.22
2019-06-01T07:27:56.115Z,19.33
2019-06-01T07:30:26.308Z,19.38
2019-06-01T07:32:55.767Z,19.47
2019-06-01T07:35:24.935Z,19.56
2019-06-01T07:37:54.130Z,19.60
2019-06-01T07:40:24.676Z,19.70
2019-06-01T07:42:54.141Z,19.82
2019-06-01T07:45:23.300Z,19.95
2019-06-01T07:47:52.519Z,20.10
2019-06-01T07:50:21.947Z,20.25
2019-06-01T07:52:51.265Z,20.42
2019-06-01T07:55:21.365Z,20.51
2019-06-01T07:57:50.833Z,20.62
2019-06-01T08:00:21.019Z,20.81
2019-06-01T08:02:51.178Z,20.89
2019-06-01T08:05:23.228Z,20.99
2019-06-01T08:07:51.389Z,21.10
2019-06-01T08:10:21.099Z,21.23
2019-06-01T08:12:51.513Z,21.28
2019-06-01T08:15:21.720Z,21.40
2019-06-01T08:17:51.184Z,21.63
2019-06-01T08:20:21.655Z,21.85
2019-06-01T08:22:51.294Z,22.01
2019-06-01T08:25:20.495Z,22.17
2019-06-01T08:27:49.672Z,22.32
2019-06-01T08:30:18.906Z,22.51
2019-06-01T08:32:48.369Z,22.71
2019-06-01T08:35:17.589Z,22.90
2019-06-01T08:37:46.803Z,23.08
2019-06-01T08:40:16.194Z,23.24
2019-06-01T08:42:45.388Z,23.51
2019-06-01T08:45:14.694Z,23.79
2019-06-01T08:47:43.866Z,24.01
2019-06-01T08:50:14.523Z,24.07
2019-06-01T08:52:43.720Z,24.07
2019-06-01T08:55:13.986Z,24.07
2019-06-01T08:57:43.202Z,24.09
2019-06-01T09:00:12.481Z,24.16
2019-06-01T09:02:41.751Z,24.28
2019-06-01T09:05:23.954Z,24.36
2019-06-01T09:07:42.048Z,24.47
2019-06-01T09:10:13.781Z,24.68
2019-06-01T09:12:42.975Z,24.87
2019-06-01T09:15:12.986Z,25.01
2019-06-01T09:17:42.397Z,24.98
2019-06-01T09:20:11.588Z,24.76
2019-06-01T09:22:40.786Z,24.70
2019-06-01T09:25:10.197Z,24.89
2019-06-01T09:27:39.383Z,25.02
2019-06-01T09:30:09.096Z,24.93
2019-06-01T09:32:38.280Z,25.08
2019-06-01T09:35:07.592Z,25.24
2019-06-01T09:37:36.883Z,25.47
2019-06-01T09:40:28.299Z,25.52
2019-06-01T09:42:58.204Z,25.60
2019-06-01T09:45:27.824Z,25.60
2019-06-01T09:47:57.231Z,25.69
2019-06-01T09:50:27.250Z,25.87
2019-06-01T09:52:56.578Z,25.99
2019-06-01T09:55:25.817Z,26.15
2019-06-01T09:57:55.132Z,26.24
2019-06-01T10:00:24.602Z,26.24
2019-06-01T10:02:53.838Z,26.52
2019-06-01T10:05:22.975Z,26.55
2019-06-01T10:07:52.174Z,26.67
2019-06-01T10:10:21.322Z,26.73
2019-06-01T10:12:50.498Z,26.79
2019-06-01T10:15:19.688Z,26.93
2019-06-01T10:17:48.941Z,26.87
2019-06-01T10:20:18.093Z,27.07
2019-06-01T10:22:47.335Z,27.15
2019-06-01T10:25:16.512Z,27.09
2019-06-01T10:27:45.732Z,26.95
2019-06-01T10:30:15.089Z,26.93
2019-06-01T10:32:44.323Z,26.95
2019-06-01T10:35:13.890Z,27.04
2019-06-01T10:37:43.153Z,27.00
2019-06-01T10:40:12.523Z,27.16
2019-06-01T10:42:41.941Z,27.13
2019-06-01T10:45:11.669Z,27.32
2019-06-01T10:47:42.024Z,27.53
2019-06-01T10:50:11.515Z,27.47
2019-06-01T10:52:40.675Z,27.61
2019-06-01T10:55:10.060Z,27.74
2019-06-01T10:57:40.529Z,27.81
2019-06-01T11:00:10.322Z,27.76
2019-06-01T11:02:40.704Z,27.96
2019-06-01T11:05:10.210Z,28.05
2019-06-01T11:07:39.396Z,27.98
2019-06-01T11:10:09.010Z,27.87
2019-06-01T11:12:39.099Z,27.93
2019-06-01T11:15:09.328Z,27.47
2019-06-01T11:17:39.262Z,28.15
2019-06-01T11:20:09.112Z,28.19
2019-06-01T11:22:39.493Z,28.29
2019-06-01T11:25:08.715Z,28.32
2019-06-01T11:27:37.948Z,28.47
2019-06-01T11:30:07.779Z,28.42
2019-06-01T11:32:39.593Z,28.35
2019-06-01T11:35:08.291Z,28.44
2019-06-01T11:37:38.427Z,28.45
2019-06-01T11:40:07.849Z,28.55
2019-06-01T11:42:37.127Z,28.65
2019-06-01T11:45:07.023Z,28.71
2019-06-01T11:47:36.790Z,28.77
2019-06-01T11:50:06.533Z,28.83
2019-06-01T11:52:36.979Z,28.76
2019-06-01T11:55:06.600Z,28.31
2019-06-01T11:57:35.773Z,28.18
2019-06-01T12:00:06.383Z,28.30
2019-06-01T12:02:35.640Z,28.46
2019-06-01T12:05:05.705Z,28.43
2019-06-01T12:07:35.688Z,28.31
2019-06-01T12:10:25.541Z,28.27
2019-06-01T12:12:54.726Z,28.38
2019-06-01T12:15:26.571Z,28.49
2019-06-01T12:17:54.842Z,28.60
2019-06-01T12:20:24.214Z,28.77
2019-06-01T12:22:53.387Z,28.79
2019-06-01T12:25:22.538Z,28.80
2019-06-01T12:27:51.717Z,28.89
2019-06-01T12:30:21.062Z,29.01
2019-06-01T12:32:50.281Z,29.10
2019-06-01T12:35:19.563Z,29.21
2019-06-01T12:38:04.794Z,29.13
2019-06-01T12:40:19.749Z,29.12
2019-06-01T12:42:48.919Z,29.14
2019-06-01T12:45:22.772Z,29.21
2019-06-01T12:47:55.347Z,29.14
2019-06-01T12:50:21.773Z,29.31
2019-06-01T12:52:50.913Z,29.33
2019-06-01T12:55:20.068Z,29.50
2019-06-01T12:57:49.430Z,29.50
2019-06-01T13:00:18.978Z,29.36
2019-06-01T13:02:56.281Z,29.39
2019-06-01T13:05:19.528Z,29.35
2019-06-01T13:07:59.851Z,29.43
2019-06-01T13:10:19.515Z,29.61
2019-06-01T13:12:49.391Z,29.41
2019-06-01T13:15:19.277Z,29.31
2019-06-01T13:17:49.435Z,29.32
2019-06-01T13:20:18.682Z,29.24
2019-06-01T13:22:47.827Z,29.29
2019-06-01T13:25:17.070Z,29.17
2019-06-01T13:27:46.468Z,29.10
2019-06-01T13:30:15.800Z,29.03
2019-06-01T13:32:46.374Z,28.77
2019-06-01T13:35:15.924Z,28.37
2019-06-01T13:37:45.154Z,28.26
2019-06-01T13:40:15.157Z,28.37
2019-06-01T13:42:44.889Z,28.61
2019-06-01T13:45:14.193Z,28.80
2019-06-01T13:47:43.498Z,28.99
2019-06-01T13:50:12.980Z,29.13
2019-06-01T13:52:42.174Z,29.17
2019-06-01T13:55:11.587Z,28.17
2019-06-01T13:57:40.712Z,29.39
2019-06-01T14:00:10.462Z,29.39
2019-06-01T14:02:39.595Z,29.35
2019-06-01T14:05:09.184Z,29.48
2019-06-01T14:07:38.300Z,29.66
2019-06-01T14:10:07.681Z,29.79
2019-06-01T14:12:36.799Z,29.75
2019-06-01T14:15:06.127Z,29.75
2019-06-01T14:17:35.324Z,29.75
2019-06-01T14:20:04.583Z,29.91
2019-06-01T14:22:33.744Z,29.71
2019-06-01T14:25:12.423Z,29.58
2019-06-01T14:27:33.736Z,29.55
2019-06-01T14:30:02.943Z,29.63
2019-06-01T14:32:32.180Z,29.77
2019-06-01T14:35:01.329Z,29.69
2019-06-01T14:37:30.434Z,29.64
2019-06-01T14:39:59.548Z,29.28
2019-06-01T14:42:28.736Z,29.54
2019-06-01T14:44:58.226Z,29.52
2019-06-01T14:47:27.436Z,29.47
2019-06-01T14:49:57.752Z,29.37
2019-06-01T14:52:27.131Z,29.34
2019-06-01T14:54:56.282Z,29.47
2019-06-01T14:57:25.518Z,29.60
2019-06-01T14:59:54.632Z,29.69
2019-06-01T15:02:23.763Z,29.75
2019-06-01T15:04:54.199Z,29.82
2019-06-01T15:07:23.355Z,29.94
2019-06-01T15:09:52.479Z,30.03
2019-06-01T15:12:21.600Z,30.01
2019-06-01T15:14:50.962Z,29.99
2019-06-01T15:17:20.053Z,29.95
2019-06-01T15:19:49.981Z,30.04
2019-06-01T15:22:19.280Z,30.13
2019-06-01T15:24:48.397Z,30.20
2019-06-01T15:27:17.527Z,29.35
2019-06-01T15:29:46.650Z,30.29
2019-06-01T15:32:15.788Z,30.35
2019-06-01T15:34:44.896Z,30.37
2019-06-01T15:37:14.032Z,30.39
2019-06-01T15:39:43.143Z,30.40
2019-06-01T15:42:12.268Z,30.38
2019-06-01T15:44:41.381Z,30.36
2019-06-01T15:47:10.509Z,30.33
2019-06-01T15:49:39.608Z,30.32
2019-06-01T15:52:08.728Z,30.25
2019-06-01T15:54:37.850Z,30.19
2019-06-01T15:57:06.968Z,30.17
2019-06-01T15:59:36.127Z,29.25
2019-06-01T16:02:05.348Z,30.21
2019-06-01T16:04:34.523Z,30.24
2019-06-01T16:07:03.634Z,30.22
2019-06-01T16:09:42.587Z,30.21
2019-06-01T16:12:03.805Z,30.18
2019-06-01T16:14:32.948Z,30.18
2019-06-01T16:17:02.863Z,30.18
2019-06-01T16:19:32.900Z,30.13
2019-06-01T16:22:02.626Z,30.11
2019-06-01T16:24:31.781Z,30.11
2019-06-01T16:27:00.918Z,30.08
2019-06-01T16:29:30.120Z,30.09
2019-06-01T16:32:00.663Z,30.05
2019-06-01T16:34:30.061Z,30.04
2019-06-01T16:36:59.233Z,30.03
2019-06-01T16:39:28.463Z,29.99
2019-06-01T16:41:57.746Z,29.95
2019-06-01T16:44:26.802Z,29.90
2019-06-01T16:46:55.939Z,29.90
2019-06-01T16:49:27.299Z,29.88
2019-06-01T16:51:58.991Z,29.86
2019-06-01T16:54:28.481Z,29.82
2019-06-01T16:56:58.034Z,29.82
2019-06-01T16:59:27.277Z,29.80
2019-06-01T17:01:56.627Z,29.71
2019-06-01T17:04:25.731Z,29.68
2019-06-01T17:06:54.834Z,29.64
2019-06-01T17:09:24.000Z,29.61
2019-06-01T17:11:53.110Z,29.61
2019-06-01T17:14:22.227Z,29.56
2019-06-01T17:16:51.423Z,29.54
2019-06-01T17:19:20.669Z,29.53
2019-06-01T17:21:49.783Z,29.48
2019-06-01T17:24:18.923Z,29.44
2019-06-01T17:26:48.062Z,29.40
2019-06-01T17:29:17.167Z,29.39
2019-06-01T17:31:54.322Z,29.39
2019-06-01T17:34:17.175Z,29.37
2019-06-01T17:36:46.294Z,29.30
2019-06-01T17:39:15.419Z,29.25
2019-06-01T17:41:44.713Z,29.19
2019-06-01T17:44:13.838Z,29.13
2019-06-01T17:46:52.911Z,29.07
2019-06-01T17:49:13.842Z,29.02
2019-06-01T17:51:43.024Z,28.99
2019-06-01T17:54:12.179Z,28.94
2019-06-01T17:56:41.440Z,28.89
2019-06-01T17:59:11.579Z,28.83
2019-06-01T18:01:42.480Z,28.74
2019-06-01T18:04:12.192Z,28.63
2019-06-01T18:06:41.437Z,28.54
2019-06-01T18:09:10.718Z,28.45
2019-06-01T18:11:39.829Z,28.35
2019-06-01T18:14:10.240Z,28.25
2019-06-01T18:16:39.446Z,28.15
2019-06-01T18:19:08.560Z,28.03
2019-06-01T18:21:37.714Z,27.41
2019-06-01T18:24:08.321Z,27.78
2019-06-01T18:26:37.700Z,27.66
2019-06-01T18:29:06.853Z,27.55
2019-06-01T18:31:36.006Z,27.40
2019-06-01T18:34:05.498Z,27.27
2019-06-01T18:36:34.873Z,27.14
2019-06-01T18:39:05.315Z,27.03
2019-06-01T18:41:34.470Z,26.87
2019-06-01T18:44:03.653Z,26.68
2019-06-01T18:46:32.756Z,26.54
2019-06-01T18:49:01.996Z,26.38
2019-06-01T18:51:31.296Z,26.12
2019-06-01T18:54:00.488Z,25.97
2019-06-01T18:56:29.663Z,25.84
2019-06-01T18:58:58.844Z,25.67
2019-06-01T19:01:28.002Z,25.52
2019-06-01T19:03:57.305Z,25.28
2019-06-01T19:06:26.498Z,25.11
2019-06-01T19:08:56.727Z,24.99
2019-06-01T19:11:35.483Z,24.96
2019-06-01T19:13:56.767Z,24.93
2019-06-01T19:16:25.944Z,24.89
2019-06-01T19:18:55.097Z,24.79
2019-06-01T19:21:24.273Z,24.67
2019-06-01T19:23:53.425Z,24.56
2019-06-01T19:26:22.598Z,24.50
2019-06-01T19:28:51.952Z,24.41
2019-06-01T19:31:21.096Z,24.29
2019-06-01T19:33:50.276Z,24.18
2019-06-01T19:36:19.660Z,24.06
2019-06-01T19:38:49.503Z,23.98
2019-06-01T19:41:18.660Z,23.93
2019-06-01T19:43:47.837Z,23.86
2019-06-01T19:46:18.020Z,23.74
2019-06-01T19:48:47.471Z,23.61
2019-06-01T19:51:16.783Z,23.55
2019-06-01T19:53:45.968Z,23.47
2019-06-01T19:56:15.133Z,23.38
2019-06-01T19:58:44.317Z,23.27
2019-06-01T20:01:14.205Z,23.20
2019-06-01T20:03:43.407Z,23.10
2019-06-01T20:06:12.835Z,22.99
2019-06-01T20:08:42.077Z,22.87
2019-06-01T20:11:13.138Z,22.79
2019-06-01T20:13:42.453Z,22.73
2019-06-01T20:16:12.336Z,22.67
2019-06-01T20:18:41.688Z,22.61
2019-06-01T20:21:11.753Z,22.50
2019-06-01T20:23:41.170Z,22.39
2019-06-01T20:26:11.248Z,22.31
2019-06-01T20:28:40.517Z,22.27
2019-06-01T20:31:09.671Z,22.21
2019-06-01T20:33:38.800Z,22.10
2019-06-01T20:36:07.948Z,21.17
2019-06-01T20:38:37.127Z,21.95
2019-06-01T20:41:06.312Z,21.89
2019-06-01T20:43:35.480Z,21.83
2019-06-01T20:46:04.741Z,21.76
2019-06-01T20:48:33.903Z,21.71
2019-06-01T20:51:03.096Z,21.65
2019-06-01T20:53:32.206Z,21.59
2019-06-01T20:56:01.439Z,21.53
2019-06-01T20:58:30.562Z,21.45
2019-06-01T21:00:59.754Z,21.35
2019-06-01T21:03:28.905Z,21.28
2019-06-01T21:05:58.088Z,21.22
2019-06-01T21:08:27.250Z,21.16
2019-06-01T21:10:56.449Z,21.11
2019-06-01T21:13:25.586Z,21.06
2019-06-01T21:15:54.770Z,21.03
2019-06-01T21:18:25.030Z,20.97
2019-06-01T21:20:54.409Z,20.92
2019-06-01T21:23:25.107Z,20.82
2019-06-01T21:25:54.482Z,20.76
2019-06-01T21:28:24.219Z,20.72
2019-06-01T21:30:54.799Z,20.66
2019-06-01T21:33:27.163Z,20.63
2019-06-01T21:35:54.790Z,20.60
2019-06-01T21:38:23.988Z,20.57
2019-06-01T21:40:53.156Z,20.50
2019-06-01T21:43:29.481Z,20.42
2019-06-01T21:45:53.410Z,20.36
2019-06-01T21:48:23.870Z,20.28
2019-06-01T21:50:53.638Z,20.21
2019-06-01T21:53:22.830Z,20.16
2019-06-01T21:55:52.084Z,20.13
2019-06-01T21:58:22.604Z,20.10
2019-06-01T22:00:51.743Z,20.09
2019-06-01T22:03:21.126Z,20.05
2019-06-01T22:05:50.314Z,20.01
2019-06-01T22:08:19.545Z,19.95
2019-06-01T22:10:48.735Z,19.89
2019-06-01T22:13:20.896Z,19.83
2019-06-01T22:15:48.819Z,19.79
2019-06-01T22:18:17.972Z,19.73
2019-06-01T22:20:47.290Z,19.67
2019-06-01T22:23:17.803Z,19.63
2019-06-01T22:25:47.077Z,19.57
2019-06-01T22:28:16.202Z,19.52
2019-06-01T22:30:45.356Z,19.49
2019-06-01T22:33:14.529Z,19.47
2019-06-01T22:35:43.692Z,19.44
2019-06-01T22:38:12.866Z,19.41
2019-06-01T22:40:42.014Z,19.38
2019-06-01T22:43:11.367Z,19.33
2019-06-01T22:45:40.624Z,19.29
2019-06-01T22:48:09.925Z,19.25
2019-06-01T22:50:39.125Z,19.22
2019-06-01T22:53:08.305Z,19.20
2019-06-01T22:55:37.503Z,19.21
2019-06-01T22:58:06.672Z,19.19
2019-06-01T23:00:35.861Z,19.17
2019-06-01T23:03:04.986Z,19.13
2019-06-01T23:05:34.108Z,19.10
2019-06-01T23:08:03.299Z,19.06
2019-06-01T23:10:35.420Z,19.00
2019-06-01T23:13:03.346Z,18.93
2019-06-01T23:15:32.472Z,18.89
2019-06-01T23:18:01.589Z,18.85
2019-06-01T23:20:32.173Z,18.82
2019-06-01T23:23:01.393Z,18.79
2019-06-01T23:25:30.798Z,18.75
2019-06-01T23:27:59.916Z,18.72
2019-06-01T23:30:30.196Z,18.70
2019-06-01T23:32:59.475Z,18.69
2019-06-01T23:35:28.642Z,18.66
2019-06-01T23:37:57.760Z,18.64
2019-06-01T23:40:26.899Z,18.32
2019-06-01T23:42:56.026Z,18.56
2019-06-01T23:45:25.177Z,18.50
2019-06-01T23:47:54.333Z,18.46
2019-06-01T23:50:23.481Z,18.42
2019-06-01T23:52:52.643Z,18.38
2019-06-01T23:55:21.769Z,18.36
2019-06-01T23:57:50.917Z,18.32
